sensor_id;sensor_type;location;lat;lon;timestamp;P1;durP1;ratioP1;P2;durP2;ratioP2
28009;SDS011;15334;49.494;8.410;2022-10-28T00:01:02;15.27;;;6.82;;
28009;SDS011;15334;49.494;8.410;2022-10-28T00:03:31;14.90;;;6.72;;
28009;SDS011;15334;49.494;8.410;2022-10-28T00:06:00;15.38;;;6.88;;
28009;SDS011;15334;49.494;8.410;2022-10-28T00:08:29;12.82;;;6.07;;
28009;SDS011;15334;49.494;8.410;2022-10-28T00:11:02;19.65;;;6.20;;
28009;SDS011;15334;49.494;8.410;2022-10-28T00:13:31;12.38;;;6.07;;
28009;SDS011;15334;49.494;8.410;2022-10-28T00:16:03;14.65;;;5.32;;
28009;SDS011;15334;49.494;8.410;2022-10-28T00:18:36;10.10;;;5.40;;
28009;SDS011;15334;49.494;8.410;2022-10-28T00:21:05;12.82;;;5.93;;
28009;SDS011;15334;49.494;8.410;2022-10-28T00:23:34;11.98;;;5.32;;
28009;SDS011;15334;49.494;8.410;2022-10-28T00:26:07;9.73;;;4.85;;
28009;SDS011;15334;49.494;8.410;2022-10-28T00:28:40;14.48;;;6.18;;
28009;SDS011;15334;49.494;8.410;2022-10-28T00:31:10;11.13;;;6.13;;
28009;SDS011;15334;49.494;8.410;2022-10-28T00:33:39;12.68;;;5.70;;
28009;SDS011;15334;49.494;8.410;2022-10-28T00:36:08;17.73;;;6.05;;
28009;SDS011;15334;49.494;8.410;2022-10-28T00:38:38;15.15;;;5.38;;
28009;SDS011;15334;49.494;8.410;2022-10-28T00:41:08;12.50;;;6.03;;
28009;SDS011;15334;49.494;8.410;2022-10-28T00:43:38;9.70;;;5.60;;
28009;SDS011;15334;49.494;8.410;2022-10-28T00:46:24;12.10;;;5.50;;
28009;SDS011;15334;49.494;8.410;2022-10-28T00:48:56;13.27;;;6.03;;
28009;SDS011;15334;49.494;8.410;2022-10-28T00:51:28;17.95;;;6.47;;
28009;SDS011;15334;49.494;8.410;2022-10-28T00:53:59;12.98;;;5.55;;
28009;SDS011;15334;49.494;8.410;2022-10-28T00:56:30;16.40;;;6.50;;
28009;SDS011;15334;49.494;8.410;2022-10-28T00:59:06;10.38;;;6.10;;
28009;SDS011;15334;49.494;8.410;2022-10-28T01:01:40;17.05;;;5.88;;
28009;SDS011;15334;49.494;8.410;2022-10-28T01:04:08;13.95;;;6.38;;
28009;SDS011;15334;49.494;8.410;2022-10-28T01:06:37;14.27;;;6.72;;
28009;SDS011;15334;49.494;8.410;2022-10-28T01:09:05;15.00;;;6.93;;
28009;SDS011;15334;49.494;8.410;2022-10-28T01:11:38;13.88;;;6.95;;
28009;SDS011;15334;49.494;8.410;2022-10-28T01:14:35;13.88;;;6.68;;
28009;SDS011;15334;49.494;8.410;2022-10-28T01:17:23;13.75;;;6.55;;
28009;SDS011;15334;49.494;8.410;2022-10-28T01:20:14;12.65;;;5.68;;
28009;SDS011;15334;49.494;8.410;2022-10-28T01:23:11;12.05;;;6.82;;
28009;SDS011;15334;49.494;8.410;2022-10-28T01:25:52;13.48;;;6.07;;
28009;SDS011;15334;49.494;8.410;2022-10-28T01:28:41;13.05;;;5.70;;
28009;SDS011;15334;49.494;8.410;2022-10-28T01:31:26;10.48;;;6.03;;
28009;SDS011;15334;49.494;8.410;2022-10-28T01:34:03;12.90;;;6.18;;
28009;SDS011;15334;49.494;8.410;2022-10-28T01:36:37;9.48;;;5.80;;
28009;SDS011;15334;49.494;8.410;2022-10-28T01:39:12;10.10;;;5.55;;
28009;SDS011;15334;49.494;8.410;2022-10-28T01:41:49;16.27;;;6.00;;
28009;SDS011;15334;49.494;8.410;2022-10-28T01:44:23;9.68;;;4.97;;
28009;SDS011;15334;49.494;8.410;2022-10-28T01:46:59;12.20;;;5.55;;
28009;SDS011;15334;49.494;8.410;2022-10-28T01:49:30;13.15;;;5.00;;
28009;SDS011;15334;49.494;8.410;2022-10-28T01:52:05;12.82;;;5.47;;
28009;SDS011;15334;49.494;8.410;2022-10-28T01:54:41;12.05;;;6.05;;
28009;SDS011;15334;49.494;8.410;2022-10-28T01:57:13;13.63;;;5.95;;
28009;SDS011;15334;49.494;8.410;2022-10-28T01:59:44;11.95;;;5.63;;
28009;SDS011;15334;49.494;8.410;2022-10-28T02:02:16;11.23;;;5.90;;
28009;SDS011;15334;49.494;8.410;2022-10-28T02:04:44;10.82;;;5.47;;
28009;SDS011;15334;49.494;8.410;2022-10-28T02:07:12;13.52;;;5.90;;
28009;SDS011;15334;49.494;8.410;2022-10-28T02:09:50;10.20;;;5.13;;
28009;SDS011;15334;49.494;8.410;2022-10-28T02:12:28;15.25;;;5.70;;
28009;SDS011;15334;49.494;8.410;2022-10-28T02:15:16;9.18;;;5.18;;
28009;SDS011;15334;49.494;8.410;2022-10-28T02:17:55;10.63;;;5.05;;
28009;SDS011;15334;49.494;8.410;2022-10-28T02:20:39;9.30;;;5.47;;
28009;SDS011;15334;49.494;8.410;2022-10-28T02:23:16;12.30;;;6.47;;
28009;SDS011;15334;49.494;8.410;2022-10-28T02:25:51;12.60;;;5.65;;
28009;SDS011;15334;49.494;8.410;2022-10-28T02:28:26;10.20;;;5.72;;
28009;SDS011;15334;49.494;8.410;2022-10-28T02:31:04;10.85;;;5.78;;
28009;SDS011;15334;49.494;8.410;2022-10-28T02:33:37;11.43;;;5.20;;
28009;SDS011;15334;49.494;8.410;2022-10-28T02:36:07;11.40;;;5.43;;
28009;SDS011;15334;49.494;8.410;2022-10-28T02:38:41;12.77;;;5.50;;
28009;SDS011;15334;49.494;8.410;2022-10-28T02:41:14;9.88;;;5.38;;
28009;SDS011;15334;49.494;8.410;2022-10-28T02:43:46;13.07;;;5.15;;
28009;SDS011;15334;49.494;8.410;2022-10-28T02:46:19;14.57;;;5.53;;
28009;SDS011;15334;49.494;8.410;2022-10-28T02:48:51;11.63;;;5.82;;
28009;SDS011;15334;49.494;8.410;2022-10-28T02:51:23;10.95;;;5.35;;
28009;SDS011;15334;49.494;8.410;2022-10-28T02:53:58;10.95;;;5.35;;
28009;SDS011;15334;49.494;8.410;2022-10-28T02:56:30;10.43;;;4.80;;
28009;SDS011;15334;49.494;8.410;2022-10-28T02:59:03;12.30;;;6.55;;
28009;SDS011;15334;49.494;8.410;2022-10-28T03:01:36;11.57;;;5.13;;
28009;SDS011;15334;49.494;8.410;2022-10-28T03:04:06;11.75;;;5.30;;
28009;SDS011;15334;49.494;8.410;2022-10-28T03:06:34;12.48;;;5.10;;
28009;SDS011;15334;49.494;8.410;2022-10-28T03:09:02;11.60;;;4.93;;
28009;SDS011;15334;49.494;8.410;2022-10-28T03:11:30;13.75;;;5.38;;
28009;SDS011;15334;49.494;8.410;2022-10-28T03:13:58;10.48;;;5.03;;
28009;SDS011;15334;49.494;8.410;2022-10-28T03:16:26;8.73;;;5.00;;
28009;SDS011;15334;49.494;8.410;2022-10-28T03:18:54;15.95;;;5.47;;
28009;SDS011;15334;49.494;8.410;2022-10-28T03:21:23;15.23;;;4.97;;
28009;SDS011;15334;49.494;8.410;2022-10-28T03:23:54;10.88;;;4.93;;
28009;SDS011;15334;49.494;8.410;2022-10-28T03:26:23;13.70;;;5.20;;
28009;SDS011;15334;49.494;8.410;2022-10-28T03:28:51;10.75;;;5.10;;
28009;SDS011;15334;49.494;8.410;2022-10-28T03:31:19;9.40;;;5.07;;
28009;SDS011;15334;49.494;8.410;2022-10-28T03:33:47;12.48;;;5.53;;
28009;SDS011;15334;49.494;8.410;2022-10-28T03:36:15;10.48;;;4.57;;
28009;SDS011;15334;49.494;8.410;2022-10-28T03:38:44;14.63;;;5.75;;
28009;SDS011;15334;49.494;8.410;2022-10-28T03:41:12;12.95;;;5.47;;
28009;SDS011;15334;49.494;8.410;2022-10-28T03:43:40;15.10;;;5.35;;
28009;SDS011;15334;49.494;8.410;2022-10-28T03:46:08;15.30;;;6.20;;
28009;SDS011;15334;49.494;8.410;2022-10-28T03:48:36;9.88;;;5.30;;
28009;SDS011;15334;49.494;8.410;2022-10-28T03:51:04;11.13;;;5.55;;
28009;SDS011;15334;49.494;8.410;2022-10-28T03:53:34;10.38;;;4.97;;
28009;SDS011;15334;49.494;8.410;2022-10-28T03:56:03;9.45;;;4.70;;
28009;SDS011;15334;49.494;8.410;2022-10-28T03:58:32;9.75;;;4.57;;
28009;SDS011;15334;49.494;8.410;2022-10-28T04:01:05;10.75;;;5.05;;
28009;SDS011;15334;49.494;8.410;2022-10-28T04:03:33;9.85;;;5.28;;
28009;SDS011;15334;49.494;8.410;2022-10-28T04:06:01;10.77;;;5.03;;
28009;SDS011;15334;49.494;8.410;2022-10-28T04:08:29;11.57;;;4.60;;
28009;SDS011;15334;49.494;8.410;2022-10-28T04:10:57;13.80;;;4.60;;
28009;SDS011;15334;49.494;8.410;2022-10-28T04:13:26;10.68;;;4.80;;
28009;SDS011;15334;49.494;8.410;2022-10-28T04:15:54;9.02;;;4.88;;
28009;SDS011;15334;49.494;8.410;2022-10-28T04:18:22;10.48;;;4.47;;
28009;SDS011;15334;49.494;8.410;2022-10-28T04:20:54;15.40;;;5.20;;
28009;SDS011;15334;49.494;8.410;2022-10-28T04:23:22;10.02;;;4.78;;
28009;SDS011;15334;49.494;8.410;2022-10-28T04:25:52;9.93;;;4.65;;
28009;SDS011;15334;49.494;8.410;2022-10-28T04:28:21;13.43;;;4.95;;
28009;SDS011;15334;49.494;8.410;2022-10-28T04:30:51;15.10;;;4.90;;
28009;SDS011;15334;49.494;8.410;2022-10-28T04:33:19;10.35;;;4.32;;
28009;SDS011;15334;49.494;8.410;2022-10-28T04:35:47;7.97;;;4.30;;
28009;SDS011;15334;49.494;8.410;2022-10-28T04:38:15;14.90;;;4.97;;
28009;SDS011;15334;49.494;8.410;2022-10-28T04:40:45;9.85;;;5.25;;
28009;SDS011;15334;49.494;8.410;2022-10-28T04:43:15;12.45;;;4.57;;
28009;SDS011;15334;49.494;8.410;2022-10-28T04:45:44;9.75;;;4.70;;
28009;SDS011;15334;49.494;8.410;2022-10-28T04:48:13;11.88;;;4.82;;
28009;SDS011;15334;49.494;8.410;2022-10-28T04:50:41;6.80;;;4.03;;
28009;SDS011;15334;49.494;8.410;2022-10-28T04:53:10;9.65;;;4.55;;
28009;SDS011;15334;49.494;8.410;2022-10-28T04:55:38;10.05;;;4.50;;
28009;SDS011;15334;49.494;8.410;2022-10-28T04:58:08;10.05;;;5.40;;
28009;SDS011;15334;49.494;8.410;2022-10-28T05:00:36;10.00;;;4.63;;
28009;SDS011;15334;49.494;8.410;2022-10-28T05:03:04;9.07;;;4.68;;
28009;SDS011;15334;49.494;8.410;2022-10-28T05:05:33;13.18;;;4.63;;
28009;SDS011;15334;49.494;8.410;2022-10-28T05:08:01;11.52;;;4.38;;
28009;SDS011;15334;49.494;8.410;2022-10-28T05:10:29;10.15;;;4.72;;
28009;SDS011;15334;49.494;8.410;2022-10-28T05:12:57;7.10;;;3.90;;
28009;SDS011;15334;49.494;8.410;2022-10-28T05:15:25;9.35;;;4.28;;
28009;SDS011;15334;49.494;8.410;2022-10-28T05:17:53;9.18;;;4.10;;
28009;SDS011;15334;49.494;8.410;2022-10-28T05:20:21;9.38;;;4.32;;
28009;SDS011;15334;49.494;8.410;2022-10-28T05:22:51;10.15;;;4.57;;
28009;SDS011;15334;49.494;8.410;2022-10-28T05:25:21;10.32;;;3.80;;
28009;SDS011;15334;49.494;8.410;2022-10-28T05:27:49;8.85;;;4.20;;
28009;SDS011;15334;49.494;8.410;2022-10-28T05:30:17;14.13;;;5.18;;
28009;SDS011;15334;49.494;8.410;2022-10-28T05:32:49;8.38;;;4.53;;
28009;SDS011;15334;49.494;8.410;2022-10-28T05:35:20;8.70;;;4.93;;
28009;SDS011;15334;49.494;8.410;2022-10-28T05:37:48;10.55;;;4.53;;
28009;SDS011;15334;49.494;8.410;2022-10-28T05:40:17;11.57;;;4.75;;
28009;SDS011;15334;49.494;8.410;2022-10-28T05:42:45;10.18;;;4.07;;
28009;SDS011;15334;49.494;8.410;2022-10-28T05:45:13;9.90;;;4.18;;
28009;SDS011;15334;49.494;8.410;2022-10-28T05:47:43;11.68;;;4.85;;
28009;SDS011;15334;49.494;8.410;2022-10-28T05:50:11;9.25;;;4.43;;
28009;SDS011;15334;49.494;8.410;2022-10-28T05:52:43;13.95;;;4.65;;
28009;SDS011;15334;49.494;8.410;2022-10-28T05:55:12;6.95;;;4.05;;
28009;SDS011;15334;49.494;8.410;2022-10-28T05:57:42;11.57;;;4.82;;
28009;SDS011;15334;49.494;8.410;2022-10-28T06:00:13;13.27;;;4.05;;
28009;SDS011;15334;49.494;8.410;2022-10-28T06:02:41;17.08;;;5.35;;
28009;SDS011;15334;49.494;8.410;2022-10-28T06:05:09;11.60;;;4.60;;
28009;SDS011;15334;49.494;8.410;2022-10-28T06:07:38;13.85;;;4.95;;
28009;SDS011;15334;49.494;8.410;2022-10-28T06:10:07;12.45;;;5.03;;
28009;SDS011;15334;49.494;8.410;2022-10-28T06:12:36;16.15;;;4.97;;
28009;SDS011;15334;49.494;8.410;2022-10-28T06:15:06;16.73;;;5.55;;
28009;SDS011;15334;49.494;8.410;2022-10-28T06:17:37;12.23;;;5.05;;
28009;SDS011;15334;49.494;8.410;2022-10-28T06:20:05;15.48;;;5.32;;
28009;SDS011;15334;49.494;8.410;2022-10-28T06:22:34;10.90;;;5.50;;
28009;SDS011;15334;49.494;8.410;2022-10-28T06:25:05;10.45;;;4.22;;
28009;SDS011;15334;49.494;8.410;2022-10-28T06:27:33;7.65;;;3.85;;
28009;SDS011;15334;49.494;8.410;2022-10-28T06:30:01;9.30;;;4.38;;
28009;SDS011;15334;49.494;8.410;2022-10-28T06:32:31;10.20;;;4.95;;
28009;SDS011;15334;49.494;8.410;2022-10-28T06:34:59;10.80;;;4.13;;
28009;SDS011;15334;49.494;8.410;2022-10-28T06:37:27;10.82;;;3.97;;
28009;SDS011;15334;49.494;8.410;2022-10-28T06:39:58;7.78;;;4.18;;
28009;SDS011;15334;49.494;8.410;2022-10-28T06:42:28;13.75;;;4.57;;
28009;SDS011;15334;49.494;8.410;2022-10-28T06:44:56;13.80;;;4.43;;
28009;SDS011;15334;49.494;8.410;2022-10-28T06:47:24;11.70;;;4.82;;
28009;SDS011;15334;49.494;8.410;2022-10-28T06:49:53;10.70;;;4.32;;
28009;SDS011;15334;49.494;8.410;2022-10-28T06:52:21;9.75;;;3.75;;
28009;SDS011;15334;49.494;8.410;2022-10-28T06:54:49;7.78;;;4.32;;
28009;SDS011;15334;49.494;8.410;2022-10-28T06:57:17;8.50;;;3.95;;
28009;SDS011;15334;49.494;8.410;2022-10-28T06:59:45;10.90;;;4.00;;
28009;SDS011;15334;49.494;8.410;2022-10-28T07:02:15;11.82;;;3.72;;
28009;SDS011;15334;49.494;8.410;2022-10-28T07:04:43;7.72;;;4.10;;
28009;SDS011;15334;49.494;8.410;2022-10-28T07:07:12;8.63;;;3.95;;
28009;SDS011;15334;49.494;8.410;2022-10-28T07:09:41;10.40;;;3.60;;
28009;SDS011;15334;49.494;8.410;2022-10-28T07:12:10;11.50;;;4.63;;
28009;SDS011;15334;49.494;8.410;2022-10-28T07:14:38;9.88;;;3.80;;
28009;SDS011;15334;49.494;8.410;2022-10-28T07:17:08;11.57;;;4.57;;
28009;SDS011;15334;49.494;8.410;2022-10-28T07:19:36;9.90;;;4.60;;
28009;SDS011;15334;49.494;8.410;2022-10-28T07:22:03;10.77;;;4.32;;
28009;SDS011;15334;49.494;8.410;2022-10-28T07:24:33;10.93;;;4.53;;
28009;SDS011;15334;49.494;8.410;2022-10-28T07:27:03;15.35;;;4.43;;
28009;SDS011;15334;49.494;8.410;2022-10-28T07:29:31;12.10;;;3.80;;
28009;SDS011;15334;49.494;8.410;2022-10-28T07:32:02;10.55;;;3.90;;
28009;SDS011;15334;49.494;8.410;2022-10-28T07:34:30;9.05;;;4.25;;
28009;SDS011;15334;49.494;8.410;2022-10-28T07:36:58;13.68;;;4.10;;
28009;SDS011;15334;49.494;8.410;2022-10-28T07:39:26;12.30;;;4.03;;
28009;SDS011;15334;49.494;8.410;2022-10-28T07:41:56;8.10;;;4.18;;
28009;SDS011;15334;49.494;8.410;2022-10-28T07:44:26;8.43;;;3.75;;
28009;SDS011;15334;49.494;8.410;2022-10-28T07:46:54;10.82;;;3.80;;
28009;SDS011;15334;49.494;8.410;2022-10-28T07:49:23;10.90;;;3.53;;
28009;SDS011;15334;49.494;8.410;2022-10-28T07:51:51;8.75;;;4.10;;
28009;SDS011;15334;49.494;8.410;2022-10-28T07:54:22;8.20;;;3.67;;
28009;SDS011;15334;49.494;8.410;2022-10-28T07:56:50;13.85;;;3.70;;
28009;SDS011;15334;49.494;8.410;2022-10-28T07:59:19;9.30;;;3.58;;
28009;SDS011;15334;49.494;8.410;2022-10-28T08:01:52;9.45;;;4.78;;
28009;SDS011;15334;49.494;8.410;2022-10-28T08:04:20;6.50;;;3.38;;
28009;SDS011;15334;49.494;8.410;2022-10-28T08:06:48;11.10;;;4.97;;
28009;SDS011;15334;49.494;8.410;2022-10-28T08:09:16;10.18;;;3.97;;
28009;SDS011;15334;49.494;8.410;2022-10-28T08:11:44;8.55;;;3.63;;
28009;SDS011;15334;49.494;8.410;2022-10-28T08:14:14;7.72;;;3.20;;
28009;SDS011;15334;49.494;8.410;2022-10-28T08:16:46;8.63;;;3.00;;
28009;SDS011;15334;49.494;8.410;2022-10-28T08:19:14;7.25;;;3.42;;
28009;SDS011;15334;49.494;8.410;2022-10-28T08:21:41;7.18;;;3.45;;
28009;SDS011;15334;49.494;8.410;2022-10-28T08:24:10;10.00;;;3.30;;
28009;SDS011;15334;49.494;8.410;2022-10-28T08:26:37;8.52;;;3.42;;
28009;SDS011;15334;49.494;8.410;2022-10-28T08:29:08;8.43;;;4.05;;
28009;SDS011;15334;49.494;8.410;2022-10-28T08:31:37;11.27;;;3.40;;
28009;SDS011;15334;49.494;8.410;2022-10-28T08:34:09;9.27;;;3.58;;
28009;SDS011;15334;49.494;8.410;2022-10-28T08:36:37;9.40;;;3.70;;
28009;SDS011;15334;49.494;8.410;2022-10-28T08:39:05;7.43;;;3.30;;
28009;SDS011;15334;49.494;8.410;2022-10-28T08:41:35;10.52;;;4.05;;
28009;SDS011;15334;49.494;8.410;2022-10-28T08:44:13;8.20;;;3.42;;
28009;SDS011;15334;49.494;8.410;2022-10-28T08:47:02;10.02;;;3.67;;
28009;SDS011;15334;49.494;8.410;2022-10-28T08:49:41;10.80;;;3.75;;
28009;SDS011;15334;49.494;8.410;2022-10-28T08:52:18;9.93;;;3.88;;
28009;SDS011;15334;49.494;8.410;2022-10-28T08:54:52;11.00;;;3.60;;
28009;SDS011;15334;49.494;8.410;2022-10-28T08:59:56;9.68;;;3.67;;
28009;SDS011;15334;49.494;8.410;2022-10-28T09:02:25;9.85;;;3.85;;
28009;SDS011;15334;49.494;8.410;2022-10-28T09:05:00;10.05;;;4.38;;
28009;SDS011;15334;49.494;8.410;2022-10-28T09:07:34;13.88;;;4.85;;
28009;SDS011;15334;49.494;8.410;2022-10-28T09:10:04;12.05;;;3.53;;
28009;SDS011;15334;49.494;8.410;2022-10-28T09:12:34;7.93;;;3.83;;
28009;SDS011;15334;49.494;8.410;2022-10-28T09:15:15;8.23;;;3.55;;
28009;SDS011;15334;49.494;8.410;2022-10-28T09:17:52;8.93;;;3.15;;
28009;SDS011;15334;49.494;8.410;2022-10-28T09:20:27;5.75;;;2.85;;
28009;SDS011;15334;49.494;8.410;2022-10-28T09:23:03;11.43;;;3.35;;
28009;SDS011;15334;49.494;8.410;2022-10-28T09:25:41;9.57;;;3.33;;
28009;SDS011;15334;49.494;8.410;2022-10-28T09:28:17;6.00;;;2.80;;
28009;SDS011;15334;49.494;8.410;2022-10-28T09:30:58;7.93;;;3.58;;
28009;SDS011;15334;49.494;8.410;2022-10-28T09:33:45;7.22;;;3.28;;
28009;SDS011;15334;49.494;8.410;2022-10-28T09:36:22;6.10;;;3.08;;
28009;SDS011;15334;49.494;8.410;2022-10-28T09:38:53;7.88;;;3.00;;
28009;SDS011;15334;49.494;8.410;2022-10-28T09:41:23;8.75;;;2.78;;
28009;SDS011;15334;49.494;8.410;2022-10-28T09:43:55;5.85;;;2.38;;
28009;SDS011;15334;49.494;8.410;2022-10-28T09:46:27;11.13;;;2.75;;
28009;SDS011;15334;49.494;8.410;2022-10-28T09:49:03;9.43;;;3.45;;
28009;SDS011;15334;49.494;8.410;2022-10-28T09:51:38;6.78;;;4.15;;
28009;SDS011;15334;49.494;8.410;2022-10-28T09:54:12;7.15;;;2.60;;
28009;SDS011;15334;49.494;8.410;2022-10-28T09:56:40;5.93;;;2.30;;
28009;SDS011;15334;49.494;8.410;2022-10-28T09:59:10;7.38;;;2.78;;
28009;SDS011;15334;49.494;8.410;2022-10-28T10:04:12;9.20;;;3.13;;
28009;SDS011;15334;49.494;8.410;2022-10-28T10:06:46;9.93;;;2.63;;
28009;SDS011;15334;49.494;8.410;2022-10-28T10:09:19;7.25;;;2.58;;
28009;SDS011;15334;49.494;8.410;2022-10-28T10:11:50;7.35;;;2.65;;
28009;SDS011;15334;49.494;8.410;2022-10-28T10:14:23;4.22;;;2.20;;
28009;SDS011;15334;49.494;8.410;2022-10-28T10:16:56;5.82;;;2.17;;
28009;SDS011;15334;49.494;8.410;2022-10-28T10:19:29;10.13;;;4.60;;
28009;SDS011;15334;49.494;8.410;2022-10-28T10:22:30;9.32;;;2.83;;
28009;SDS011;15334;49.494;8.410;2022-10-28T10:24:58;9.13;;;2.80;;
28009;SDS011;15334;49.494;8.410;2022-10-28T10:27:27;10.95;;;3.22;;
28009;SDS011;15334;49.494;8.410;2022-10-28T10:29:56;7.20;;;3.15;;
28009;SDS011;15334;49.494;8.410;2022-10-28T10:32:26;6.53;;;2.63;;
28009;SDS011;15334;49.494;8.410;2022-10-28T10:34:58;5.75;;;2.08;;
28009;SDS011;15334;49.494;8.410;2022-10-28T10:37:32;9.57;;;3.20;;
28009;SDS011;15334;49.494;8.410;2022-10-28T10:40:03;6.45;;;2.80;;
28009;SDS011;15334;49.494;8.410;2022-10-28T10:42:34;8.15;;;2.40;;
28009;SDS011;15334;49.494;8.410;2022-10-28T10:45:21;8.82;;;2.63;;
28009;SDS011;15334;49.494;8.410;2022-10-28T10:48:04;6.05;;;2.65;;
28009;SDS011;15334;49.494;8.410;2022-10-28T10:50:34;8.80;;;2.83;;
28009;SDS011;15334;49.494;8.410;2022-10-28T10:53:05;5.50;;;2.08;;
28009;SDS011;15334;49.494;8.410;2022-10-28T10:55:42;6.15;;;3.20;;
28009;SDS011;15334;49.494;8.410;2022-10-28T10:58:17;5.03;;;2.55;;
28009;SDS011;15334;49.494;8.410;2022-10-28T11:00:47;3.58;;;1.75;;
28009;SDS011;15334;49.494;8.410;2022-10-28T11:03:20;9.02;;;2.55;;
28009;SDS011;15334;49.494;8.410;2022-10-28T11:05:52;5.63;;;2.03;;
28009;SDS011;15334;49.494;8.410;2022-10-28T11:08:43;9.10;;;2.10;;
28009;SDS011;15334;49.494;8.410;2022-10-28T11:11:12;5.35;;;2.10;;
28009;SDS011;15334;49.494;8.410;2022-10-28T11:13:45;6.25;;;2.30;;
28009;SDS011;15334;49.494;8.410;2022-10-28T11:16:18;8.85;;;1.77;;
28009;SDS011;15334;49.494;8.410;2022-10-28T11:18:48;5.60;;;2.00;;
28009;SDS011;15334;49.494;8.410;2022-10-28T11:21:36;8.05;;;2.78;;
28009;SDS011;15334;49.494;8.410;2022-10-28T11:24:29;7.40;;;2.17;;
28009;SDS011;15334;49.494;8.410;2022-10-28T11:27:11;9.70;;;2.33;;
28009;SDS011;15334;49.494;8.410;2022-10-28T11:29:48;11.43;;;2.58;;
28009;SDS011;15334;49.494;8.410;2022-10-28T11:32:20;5.90;;;2.20;;
28009;SDS011;15334;49.494;8.410;2022-10-28T11:35:29;3.95;;;1.80;;
28009;SDS011;15334;49.494;8.410;2022-10-28T11:38:20;7.32;;;2.00;;
28009;SDS011;15334;49.494;8.410;2022-10-28T11:41:03;6.00;;;1.60;;
28009;SDS011;15334;49.494;8.410;2022-10-28T11:43:45;6.18;;;1.85;;
28009;SDS011;15334;49.494;8.410;2022-10-28T11:46:34;3.45;;;1.73;;
28009;SDS011;15334;49.494;8.410;2022-10-28T11:52:06;7.82;;;2.30;;
28009;SDS011;15334;49.494;8.410;2022-10-28T11:54:49;5.28;;;2.13;;
28009;SDS011;15334;49.494;8.410;2022-10-28T11:57:31;12.10;;;2.92;;
28009;SDS011;15334;49.494;8.410;2022-10-28T12:00:22;6.85;;;1.60;;
28009;SDS011;15334;49.494;8.410;2022-10-28T12:02:58;8.05;;;2.60;;
28009;SDS011;15334;49.494;8.410;2022-10-28T12:05:39;6.95;;;2.83;;
28009;SDS011;15334;49.494;8.410;2022-10-28T12:08:26;9.73;;;2.15;;
28009;SDS011;15334;49.494;8.410;2022-10-28T12:11:08;5.85;;;2.50;;
28009;SDS011;15334;49.494;8.410;2022-10-28T12:13:46;7.93;;;2.10;;
28009;SDS011;15334;49.494;8.410;2022-10-28T12:16:21;13.93;;;2.00;;
28009;SDS011;15334;49.494;8.410;2022-10-28T12:18:57;7.30;;;2.58;;
28009;SDS011;15334;49.494;8.410;2022-10-28T12:21:30;4.43;;;1.63;;
28009;SDS011;15334;49.494;8.410;2022-10-28T12:24:05;3.80;;;2.30;;
28009;SDS011;15334;49.494;8.410;2022-10-28T12:26:39;6.57;;;2.13;;
28009;SDS011;15334;49.494;8.410;2022-10-28T12:29:13;11.60;;;2.23;;
28009;SDS011;15334;49.494;8.410;2022-10-28T12:31:46;8.57;;;2.08;;
28009;SDS011;15334;49.494;8.410;2022-10-28T12:34:19;4.32;;;1.60;;
28009;SDS011;15334;49.494;8.410;2022-10-28T12:36:52;5.97;;;1.90;;
28009;SDS011;15334;49.494;8.410;2022-10-28T12:39:26;7.55;;;2.70;;
28009;SDS011;15334;49.494;8.410;2022-10-28T12:42:02;13.32;;;2.75;;
28009;SDS011;15334;49.494;8.410;2022-10-28T12:44:38;5.80;;;2.50;;
28009;SDS011;15334;49.494;8.410;2022-10-28T12:47:11;6.53;;;2.17;;
28009;SDS011;15334;49.494;8.410;2022-10-28T12:49:47;6.57;;;2.30;;
28009;SDS011;15334;49.494;8.410;2022-10-28T12:52:26;4.40;;;2.28;;
28009;SDS011;15334;49.494;8.410;2022-10-28T12:55:05;7.57;;;2.70;;
28009;SDS011;15334;49.494;8.410;2022-10-28T12:57:49;4.95;;;1.85;;
28009;SDS011;15334;49.494;8.410;2022-10-28T13:00:24;10.25;;;2.80;;
28009;SDS011;15334;49.494;8.410;2022-10-28T13:02:58;3.67;;;1.60;;
28009;SDS011;15334;49.494;8.410;2022-10-28T13:05:30;5.60;;;2.45;;
28009;SDS011;15334;49.494;8.410;2022-10-28T13:08:11;8.27;;;2.20;;
28009;SDS011;15334;49.494;8.410;2022-10-28T13:11:20;7.28;;;2.53;;
28009;SDS011;15334;49.494;8.410;2022-10-28T13:14:11;6.45;;;2.17;;
28009;SDS011;15334;49.494;8.410;2022-10-28T13:16:55;4.97;;;2.10;;
28009;SDS011;15334;49.494;8.410;2022-10-28T13:19:42;9.23;;;2.72;;
28009;SDS011;15334;49.494;8.410;2022-10-28T13:22:24;7.00;;;2.33;;
28009;SDS011;15334;49.494;8.410;2022-10-28T13:25:16;7.03;;;2.50;;
28009;SDS011;15334;49.494;8.410;2022-10-28T13:27:55;10.85;;;2.25;;
28009;SDS011;15334;49.494;8.410;2022-10-28T13:30:24;6.43;;;2.50;;
28009;SDS011;15334;49.494;8.410;2022-10-28T13:33:02;11.05;;;2.30;;
28009;SDS011;15334;49.494;8.410;2022-10-28T13:35:32;4.97;;;2.17;;
28009;SDS011;15334;49.494;8.410;2022-10-28T13:38:01;6.28;;;1.80;;
28009;SDS011;15334;49.494;8.410;2022-10-28T13:43:57;7.60;;;2.03;;
28009;SDS011;15334;49.494;8.410;2022-10-28T13:49:27;6.80;;;2.15;;
28009;SDS011;15334;49.494;8.410;2022-10-28T13:51:59;8.07;;;2.28;;
28009;SDS011;15334;49.494;8.410;2022-10-28T13:54:31;5.70;;;2.10;;
28009;SDS011;15334;49.494;8.410;2022-10-28T13:57:20;4.80;;;1.70;;
28009;SDS011;15334;49.494;8.410;2022-10-28T13:59:54;7.43;;;2.00;;
28009;SDS011;15334;49.494;8.410;2022-10-28T14:02:27;8.73;;;2.80;;
28009;SDS011;15334;49.494;8.410;2022-10-28T14:05:05;5.32;;;1.83;;
28009;SDS011;15334;49.494;8.410;2022-10-28T14:07:37;7.75;;;2.45;;
28009;SDS011;15334;49.494;8.410;2022-10-28T14:10:19;7.37;;;2.17;;
28009;SDS011;15334;49.494;8.410;2022-10-28T14:12:50;7.47;;;2.75;;
28009;SDS011;15334;49.494;8.410;2022-10-28T14:15:23;7.22;;;2.40;;
28009;SDS011;15334;49.494;8.410;2022-10-28T14:17:53;7.53;;;2.30;;
28009;SDS011;15334;49.494;8.410;2022-10-28T14:20:53;9.68;;;3.05;;
28009;SDS011;15334;49.494;8.410;2022-10-28T14:26:19;7.32;;;2.30;;
28009;SDS011;15334;49.494;8.410;2022-10-28T14:28:53;6.18;;;2.08;;
28009;SDS011;15334;49.494;8.410;2022-10-28T14:31:32;5.60;;;2.03;;
28009;SDS011;15334;49.494;8.410;2022-10-28T14:37:11;6.18;;;2.05;;
28009;SDS011;15334;49.494;8.410;2022-10-28T14:40:00;5.45;;;2.83;;
28009;SDS011;15334;49.494;8.410;2022-10-28T14:42:46;7.00;;;2.40;;
28009;SDS011;15334;49.494;8.410;2022-10-28T14:45:30;4.78;;;1.90;;
28009;SDS011;15334;49.494;8.410;2022-10-28T14:51:08;5.93;;;2.25;;
28009;SDS011;15334;49.494;8.410;2022-10-28T14:53:42;12.35;;;2.78;;
28009;SDS011;15334;49.494;8.410;2022-10-28T14:56:15;10.52;;;2.20;;
28009;SDS011;15334;49.494;8.410;2022-10-28T14:58:48;7.72;;;2.60;;
28009;SDS011;15334;49.494;8.410;2022-10-28T15:01:25;7.00;;;2.58;;
28009;SDS011;15334;49.494;8.410;2022-10-28T15:03:55;7.13;;;2.50;;
28009;SDS011;15334;49.494;8.410;2022-10-28T15:09:05;9.35;;;3.33;;
28009;SDS011;15334;49.494;8.410;2022-10-28T15:11:43;6.90;;;2.20;;
28009;SDS011;15334;49.494;8.410;2022-10-28T15:14:14;8.70;;;2.60;;
28009;SDS011;15334;49.494;8.410;2022-10-28T15:16:50;5.32;;;2.40;;
28009;SDS011;15334;49.494;8.410;2022-10-28T15:19:19;9.27;;;2.58;;
28009;SDS011;15334;49.494;8.410;2022-10-28T15:22:05;5.53;;;2.40;;
28009;SDS011;15334;49.494;8.410;2022-10-28T15:24:41;7.25;;;3.08;;
28009;SDS011;15334;49.494;8.410;2022-10-28T15:27:30;9.25;;;2.45;;
28009;SDS011;15334;49.494;8.410;2022-10-28T15:29:59;6.85;;;2.67;;
28009;SDS011;15334;49.494;8.410;2022-10-28T15:32:31;10.23;;;2.25;;
28009;SDS011;15334;49.494;8.410;2022-10-28T15:37:46;8.13;;;2.28;;
28009;SDS011;15334;49.494;8.410;2022-10-28T15:40:27;6.93;;;2.60;;
28009;SDS011;15334;49.494;8.410;2022-10-28T15:42:56;6.90;;;2.45;;
28009;SDS011;15334;49.494;8.410;2022-10-28T15:45:26;9.85;;;2.88;;